createdAt,value
2023-02-14T00:01:10.831Z,103810.81
2023-02-14T00:03:38.039Z,103811.75
2023-02-14T00:06:09.197Z,103804.56
2023-02-14T00:08:36.817Z,103803.69
2023-02-14T00:11:05.492Z,103798.25
2023-02-14T00:13:32.653Z,103803.63
2023-02-14T00:15:59.508Z,103802.72
2023-02-14T00:18:46.760Z,103805.53
2023-02-14T00:21:13.424Z,103801.94
2023-02-14T00:23:40.655Z,103793.84
2023-02-14T00:26:14.025Z,103800.16
2023-02-14T00:28:40.691Z,103799.22
2023-02-14T00:31:07.475Z,103793.78
2023-02-14T00:33:34.309Z,103796.56
2023-02-14T00:36:07.410Z,103796.53
2023-02-14T00:38:35.048Z,103805.50
2023-02-14T00:41:02.413Z,103797.47
2023-02-14T00:43:29.726Z,103796.59
2023-02-14T00:45:56.909Z,103801.97
2023-02-14T00:48:23.763Z,103800.09
2023-02-14T00:50:50.430Z,103795.59
2023-02-14T00:53:17.319Z,103799.22
2023-02-14T00:55:46.660Z,103798.34
2023-02-14T00:58:13.454Z,103795.66
2023-02-14T01:00:40.359Z,103791.13
2023-02-14T01:03:07.431Z,103790.25
2023-02-14T01:05:34.176Z,103778.59
2023-02-14T01:08:00.865Z,103786.69
2023-02-14T01:10:27.684Z,103777.69
2023-02-14T01:12:54.468Z,103775.00
2023-02-14T01:15:21.224Z,103780.38
2023-02-14T01:17:47.912Z,103783.06
2023-02-14T01:20:14.808Z,103779.53
2023-02-14T01:22:42.400Z,103775.94
2023-02-14T01:25:09.312Z,103780.41
2023-02-14T01:27:37.544Z,103779.53
2023-02-14T01:30:05.493Z,103783.16
2023-02-14T01:32:35.775Z,103784.94
2023-02-14T01:35:02.617Z,103780.41
2023-02-14T01:37:31.253Z,103780.38
2023-02-14T01:39:59.110Z,103775.06
2023-02-14T01:42:25.962Z,103772.28
2023-02-14T01:45:07.054Z,103766.94
2023-02-14T01:47:38.964Z,103764.22
2023-02-14T01:50:33.577Z,103763.16
2023-02-14T01:53:05.389Z,103747.97
2023-02-14T01:55:36.392Z,103739.00
2023-02-14T01:58:11.830Z,103742.59
2023-02-14T02:00:59.181Z,103737.19
2023-02-14T02:03:33.160Z,103730.94
2023-02-14T02:06:31.011Z,103735.44
2023-02-14T02:09:20.576Z,103733.66
2023-02-14T02:11:49.828Z,103733.69
2023-02-14T02:14:19.999Z,103727.44
2023-02-14T02:17:27.608Z,103737.31
2023-02-14T02:20:13.412Z,103737.31
2023-02-14T02:23:05.727Z,103739.13
2023-02-14T02:26:10.530Z,103742.66
2023-02-14T02:28:49.457Z,103733.75
2023-02-14T02:31:38.382Z,103727.50
2023-02-14T02:34:50.600Z,103735.56
2023-02-14T02:37:41.791Z,103728.38
2023-02-14T02:40:39.839Z,103728.38
2023-02-14T02:43:35.588Z,103725.66
2023-02-14T02:46:39.123Z,103728.38
2023-02-14T02:49:52.086Z,103725.66
2023-02-14T02:53:03.122Z,103714.94
2023-02-14T02:55:59.631Z,103709.47
2023-02-14T02:58:32.589Z,103707.66
2023-02-14T03:01:04.519Z,103711.38
2023-02-14T03:03:52.065Z,103714.06
2023-02-14T03:06:20.820Z,103714.94
2023-02-14T03:08:47.622Z,103722.13
2023-02-14T03:11:18.609Z,103712.25
2023-02-14T03:13:52.117Z,103714.94
2023-02-14T03:16:22.104Z,103719.50
2023-02-14T03:19:44.960Z,103720.38
2023-02-14T03:22:41.044Z,103725.75
2023-02-14T03:25:21.471Z,103719.44
2023-02-14T03:28:22.075Z,103718.50
2023-02-14T03:31:03.001Z,103716.72
2023-02-14T03:34:07.471Z,103722.09
2023-02-14T03:37:25.551Z,103724.75
2023-02-14T03:40:01.286Z,103717.53
2023-02-14T03:42:35.234Z,103705.00
2023-02-14T03:45:06.226Z,103716.69
2023-02-14T03:47:36.158Z,103714.97
2023-02-14T03:50:11.909Z,103718.56
2023-02-14T03:52:41.137Z,103720.25
2023-02-14T03:55:09.872Z,103717.63
2023-02-14T03:57:52.322Z,103716.84
2023-02-14T04:00:19.936Z,103716.00
2023-02-14T04:02:50.961Z,103722.25
2023-02-14T04:05:21.541Z,103715.09
2023-02-14T04:07:51.994Z,103722.31
2023-02-14T04:10:19.946Z,103723.19
2023-02-14T04:12:47.460Z,103729.44
2023-02-14T04:15:17.229Z,103724.97
2023-02-14T04:18:03.227Z,103723.19
2023-02-14T04:20:30.623Z,103736.63
2023-02-14T04:22:57.677Z,103736.69
2023-02-14T04:25:24.383Z,103728.56
2023-02-14T04:27:51.167Z,103731.28
2023-02-14T04:30:18.470Z,103730.38
2023-02-14T04:32:45.302Z,103727.69
2023-02-14T04:35:12.291Z,103731.31
2023-02-14T04:37:39.495Z,103733.97
2023-02-14T04:40:06.942Z,103732.19
2023-02-14T04:42:33.963Z,103722.31
2023-02-14T04:45:03.137Z,103721.41
2023-02-14T04:47:30.821Z,103723.16
2023-02-14T04:49:57.623Z,103721.38
2023-02-14T04:52:24.565Z,103712.44
2023-02-14T04:54:51.237Z,103721.47
2023-02-14T04:57:18.457Z,103722.31
2023-02-14T04:59:45.162Z,103714.28
2023-02-14T05:02:12.013Z,103715.19
2023-02-14T05:04:39.499Z,103712.50
2023-02-14T05:07:06.307Z,103709.81
2023-02-14T05:09:33.142Z,103715.19
2023-02-14T05:11:59.837Z,103716.06
2023-02-14T05:14:26.723Z,103720.56
2023-02-14T05:16:53.571Z,103725.00
2023-02-14T05:19:20.313Z,103720.50
2023-02-14T05:21:47.178Z,103727.69
2023-02-14T05:24:13.880Z,103711.53
2023-02-14T05:26:41.104Z,103708.91
2023-02-14T05:29:08.176Z,103715.16
2023-02-14T05:31:35.095Z,103719.63
2023-02-14T05:34:01.988Z,103713.41
2023-02-14T05:36:28.826Z,103712.53
2023-02-14T05:38:55.563Z,103717.00
2023-02-14T05:41:24.039Z,103717.91
2023-02-14T05:43:51.089Z,103716.09
2023-02-14T05:46:18.969Z,103708.03
2023-02-14T05:48:46.485Z,103704.47
2023-02-14T05:51:13.931Z,103716.13
2023-02-14T05:53:40.907Z,103720.63
2023-02-14T05:56:08.036Z,103723.28
2023-02-14T05:58:34.829Z,103722.38
2023-02-14T06:01:02.069Z,103727.78
2023-02-14T06:03:28.999Z,103732.22
2023-02-14T06:05:55.769Z,103736.69
2023-02-14T06:08:22.764Z,103735.81
2023-02-14T06:10:49.552Z,103725.97
2023-02-14T06:13:16.271Z,103730.47
2023-02-14T06:15:43.086Z,103738.53
2023-02-14T06:18:09.950Z,103740.31
2023-02-14T06:20:36.885Z,103743.94
2023-02-14T06:23:03.664Z,103747.53
2023-02-14T06:25:30.552Z,103738.56
2023-02-14T06:27:58.734Z,103741.25
2023-02-14T06:30:25.917Z,103750.19
2023-02-14T06:32:53.177Z,103743.88
2023-02-14T06:35:21.355Z,103742.09
2023-02-14T06:37:48.364Z,103745.69
2023-02-14T06:40:15.173Z,103737.63
2023-02-14T06:42:41.932Z,103734.03
2023-02-14T06:45:09.320Z,103735.81
2023-02-14T06:47:36.128Z,103731.31
2023-02-14T06:50:05.170Z,103734.03
2023-02-14T06:52:33.255Z,103731.34
2023-02-14T06:55:00.100Z,103735.84
2023-02-14T06:57:27.036Z,103736.75
2023-02-14T06:59:54.031Z,103739.44
2023-02-14T07:02:22.824Z,103730.38
2023-02-14T07:04:51.136Z,103731.25
2023-02-14T07:07:17.905Z,103727.69
2023-02-14T07:09:44.808Z,103726.81
2023-02-14T07:12:11.598Z,103729.53
2023-02-14T07:14:38.372Z,103714.25
2023-02-14T07:17:05.176Z,103722.38
2023-02-14T07:19:31.928Z,103728.59
2023-02-14T07:21:58.636Z,103717.84
2023-02-14T07:24:25.527Z,103715.16
2023-02-14T07:26:52.387Z,103715.13
2023-02-14T07:29:19.160Z,103717.88
2023-02-14T07:31:46.048Z,103716.94
2023-02-14T07:34:13.012Z,103716.00
2023-02-14T07:36:39.886Z,103716.91
2023-02-14T07:39:06.692Z,103719.53
2023-02-14T07:41:33.560Z,103713.28
2023-02-14T07:44:00.310Z,103708.78
2023-02-14T07:46:27.183Z,103709.69
2023-02-14T07:48:54.103Z,103706.06
2023-02-14T07:51:20.923Z,103706.03
2023-02-14T07:53:48.472Z,103698.78
2023-02-14T07:56:15.245Z,103697.91
2023-02-14T07:58:42.076Z,103698.84
2023-02-14T08:01:08.953Z,103696.16
2023-02-14T08:03:35.669Z,103700.56
2023-02-14T08:06:02.430Z,103697.91
2023-02-14T08:08:30.963Z,103695.25
2023-02-14T08:10:58.432Z,103690.75
2023-02-14T08:13:26.062Z,103694.31
2023-02-14T08:16:05.414Z,103698.81
2023-02-14T08:18:35.638Z,103685.25
2023-02-14T08:21:02.947Z,103687.06
2023-02-14T08:23:29.951Z,103672.72
2023-02-14T08:25:57.115Z,103681.69
2023-02-14T08:28:24.132Z,103680.78
2023-02-14T08:30:51.523Z,103689.66
2023-02-14T08:33:18.966Z,103687.00
2023-02-14T08:35:45.901Z,103692.38
2023-02-14T08:38:12.929Z,103689.69
2023-02-14T08:40:39.792Z,103694.13
2023-02-14T08:43:07.458Z,103697.66
2023-02-14T08:45:34.761Z,103698.47
2023-02-14T08:48:10.251Z,103698.53
2023-02-14T08:50:38.139Z,103700.31
2023-02-14T08:53:09.603Z,103691.31
2023-02-14T08:55:36.907Z,103694.91
2023-02-14T08:58:04.134Z,103702.03
2023-02-14T09:00:32.331Z,103698.53
2023-02-14T09:02:59.740Z,103693.97
2023-02-14T09:05:27.006Z,103687.63
2023-02-14T09:07:56.432Z,103693.03
2023-02-14T09:10:24.793Z,103692.19
2023-02-14T09:12:52.063Z,103699.31
2023-02-14T09:15:19.031Z,103697.47
2023-02-14T09:17:46.648Z,103689.25
2023-02-14T09:20:15.517Z,103698.16
2023-02-14T09:22:42.347Z,103694.56
2023-02-14T09:25:09.867Z,103689.19
2023-02-14T09:27:36.998Z,103686.56
2023-02-14T09:30:05.974Z,103700.66
2023-02-14T09:32:32.939Z,103686.47
2023-02-14T09:35:00.312Z,103679.19
2023-02-14T09:37:27.127Z,103685.31
2023-02-14T09:39:53.831Z,103670.16
2023-02-14T09:42:49.357Z,103674.53
2023-02-14T09:45:21.560Z,103671.88
2023-02-14T09:47:57.378Z,103678.25
2023-02-14T09:50:30.343Z,103676.34
2023-02-14T09:53:00.998Z,103678.16
2023-02-14T09:55:37.283Z,103666.41
2023-02-14T09:58:17.585Z,103666.59
2023-02-14T10:01:00.493Z,103670.03
2023-02-14T10:03:49.293Z,103677.22
2023-02-14T10:06:40.655Z,103668.00
2023-02-14T10:09:39.237Z,103656.75
2023-02-14T10:12:14.456Z,103669.94
2023-02-14T10:14:41.461Z,103662.75
2023-02-14T10:17:14.334Z,103656.34
2023-02-14T10:19:48.406Z,103661.75
2023-02-14T10:22:18.472Z,103660.75
2023-02-14T10:25:06.756Z,103648.78
2023-02-14T10:27:33.435Z,103647.72
2023-02-14T10:30:00.460Z,103649.06
2023-02-14T10:32:51.495Z,103654.41
2023-02-14T10:35:43.184Z,103649.94
2023-02-14T10:38:30.179Z,103652.72
2023-02-14T10:41:15.533Z,103658.00
2023-02-14T10:44:00.735Z,103658.63
2023-02-14T10:46:33.371Z,103648.72
2023-02-14T10:49:00.041Z,103645.09
2023-02-14T10:51:35.985Z,103637.00
2023-02-14T10:54:22.963Z,103646.03
2023-02-14T10:57:00.544Z,103641.50
2023-02-14T10:59:42.636Z,103641.56
2023-02-14T11:02:14.395Z,103646.69
2023-02-14T11:04:42.238Z,103644.94
2023-02-14T11:07:17.342Z,103632.44
2023-02-14T11:09:44.423Z,103634.84
2023-02-14T11:12:11.353Z,103623.19
2023-02-14T11:14:40.044Z,103623.97
2023-02-14T11:17:30.995Z,103628.72
2023-02-14T11:20:06.438Z,103626.75
2023-02-14T11:22:35.274Z,103630.13
2023-02-14T11:25:08.406Z,103616.59
2023-02-14T11:27:37.938Z,103613.34
2023-02-14T11:30:18.771Z,103604.31
2023-02-14T11:32:55.174Z,103613.06
2023-02-14T11:35:27.550Z,103605.53
2023-02-14T11:37:56.678Z,103598.47
2023-02-14T11:40:38.415Z,103588.50
2023-02-14T11:43:14.300Z,103590.94
2023-02-14T11:45:43.649Z,103594.28
2023-02-14T11:48:36.826Z,103581.09
2023-02-14T11:51:11.128Z,103579.34
2023-02-14T11:53:40.837Z,103572.88
2023-02-14T11:56:07.650Z,103574.00
2023-02-14T11:58:37.565Z,103574.56
2023-02-14T12:01:05.340Z,103560.16
2023-02-14T12:03:45.153Z,103567.41
2023-02-14T12:06:13.701Z,103566.47
2023-02-14T12:08:42.055Z,103552.84
2023-02-14T12:11:19.333Z,103548.63
2023-02-14T12:13:53.836Z,103545.44
2023-02-14T12:16:29.165Z,103532.69
2023-02-14T12:19:17.459Z,103540.41
2023-02-14T12:21:55.278Z,103537.97
2023-02-14T12:24:30.827Z,103550.66
2023-02-14T12:27:04.704Z,103543.47
2023-02-14T12:29:44.924Z,103552.78
2023-02-14T12:32:32.761Z,103536.06
2023-02-14T12:35:22.132Z,103537.53
2023-02-14T12:38:09.388Z,103521.97
2023-02-14T12:41:11.047Z,103514.00
2023-02-14T12:43:52.611Z,103505.28
2023-02-14T12:46:41.368Z,103508.09
2023-02-14T12:49:26.220Z,103522.97
2023-02-14T12:52:38.927Z,103505.47
2023-02-14T12:55:35.103Z,103511.75
2023-02-14T12:58:30.664Z,103523.03
2023-02-14T13:01:32.872Z,103518.78
2023-02-14T13:04:08.999Z,103510.22
2023-02-14T13:06:48.101Z,103507.41
2023-02-14T13:09:18.988Z,103515.34
2023-02-14T13:12:16.171Z,103516.06
2023-02-14T13:15:08.608Z,103503.56
2023-02-14T13:17:53.033Z,103504.31
2023-02-14T13:20:44.750Z,103504.78
2023-02-14T13:23:31.618Z,103495.06
2023-02-14T13:26:27.266Z,103497.53
2023-02-14T13:29:12.330Z,103489.47
2023-02-14T13:31:47.131Z,103472.59
2023-02-14T13:34:39.183Z,103479.69
2023-02-14T13:37:11.999Z,103480.38
2023-02-14T13:39:52.819Z,103457.88
2023-02-14T13:42:49.568Z,103460.94
2023-02-14T13:45:41.663Z,103474.56
2023-02-14T13:48:17.812Z,103473.72
2023-02-14T13:51:04.941Z,103469.03
2023-02-14T13:53:45.880Z,103464.34
2023-02-14T13:56:14.107Z,103466.06
2023-02-14T13:59:11.218Z,103469.44
2023-02-14T14:01:51.094Z,103452.59
2023-02-14T14:04:28.925Z,103454.25
2023-02-14T14:07:25.327Z,103461.19
2023-02-14T14:12:43.299Z,103454.66
2023-02-14T14:15:18.319Z,103440.66
2023-02-14T14:18:07.831Z,103442.59
2023-02-14T14:20:45.162Z,103454.88
2023-02-14T14:23:34.303Z,103442.19
2023-02-14T14:29:28.748Z,103442.59
2023-02-14T14:32:03.033Z,103444.97
2023-02-14T14:34:35.115Z,103435.91
2023-02-14T14:37:30.553Z,103442.59
2023-02-14T14:40:49.240Z,103434.53
2023-02-14T14:43:39.870Z,103438.22
2023-02-14T14:46:11.385Z,103451.53
2023-02-14T14:48:43.121Z,103452.41
2023-02-14T14:51:22.581Z,103449.91
2023-02-14T14:53:57.306Z,103446.72
2023-02-14T14:56:27.229Z,103447.28
2023-02-14T14:58:54.531Z,103436.31
2023-02-14T15:01:48.536Z,103446.53
2023-02-14T15:04:19.530Z,103447.63
2023-02-14T15:06:47.412Z,103445.28
2023-02-14T15:09:31.481Z,103440.25
2023-02-14T15:12:21.227Z,103440.56
2023-02-14T15:14:54.791Z,103450.31
2023-02-14T15:17:25.877Z,103452.97
2023-02-14T15:20:00.589Z,103443.56
2023-02-14T15:22:30.259Z,103430.91
2023-02-14T15:24:58.099Z,103414.56
2023-02-14T15:27:27.090Z,103421.81
2023-02-14T15:30:01.960Z,103428.00
2023-02-14T15:32:32.850Z,103428.97
2023-02-14T15:35:03.227Z,103429.81
2023-02-14T15:37:30.435Z,103423.75
2023-02-14T15:39:58.353Z,103420.06
2023-02-14T15:42:29.861Z,103409.53
2023-02-14T15:45:27.900Z,103414.84
2023-02-14T15:48:05.404Z,103410.69
2023-02-14T15:50:42.948Z,103416.09
2023-02-14T15:53:29.321Z,103407.97
2023-02-14T15:56:03.838Z,103409.88
2023-02-14T15:58:32.594Z,103409.94
2023-02-14T16:01:00.177Z,103402.78
2023-02-14T16:03:30.798Z,103396.41
2023-02-14T16:05:57.624Z,103397.13
2023-02-14T16:08:41.130Z,103400.72
2023-02-14T16:11:26.423Z,103403.69
2023-02-14T16:13:53.594Z,103413.78
2023-02-14T16:16:20.282Z,103416.13
2023-02-14T16:18:53.271Z,103415.94
2023-02-14T16:21:28.638Z,103416.03
2023-02-14T16:24:15.788Z,103404.50
2023-02-14T16:26:44.525Z,103402.78
2023-02-14T16:29:13.189Z,103400.09
2023-02-14T16:34:41.928Z,103396.75
2023-02-14T16:37:22.161Z,103396.84
2023-02-14T16:39:51.784Z,103400.53
2023-02-14T16:42:18.971Z,103398.59
2023-02-14T16:44:47.009Z,103390.75
2023-02-14T16:47:15.271Z,103396.97
2023-02-14T16:49:42.228Z,103393.50
2023-02-14T16:52:23.782Z,103389.94
2023-02-14T16:54:50.950Z,103387.22
2023-02-14T16:57:27.713Z,103382.94
2023-02-14T16:59:56.206Z,103388.41
2023-02-14T17:02:23.047Z,103398.31
2023-02-14T17:04:49.821Z,103388.41
2023-02-14T17:07:16.677Z,103371.25
2023-02-14T17:09:48.357Z,103373.16
2023-02-14T17:12:20.828Z,103376.72
2023-02-14T17:14:51.475Z,103370.50
2023-02-14T17:17:18.331Z,103378.63
2023-02-14T17:19:45.206Z,103378.78
2023-02-14T17:22:13.567Z,103374.31
2023-02-14T17:24:41.109Z,103368.97
2023-02-14T17:27:08.736Z,103358.16
2023-02-14T17:29:35.639Z,103364.53
2023-02-14T17:32:02.580Z,103356.53
2023-02-14T17:34:33.363Z,103352.88
2023-02-14T17:37:00.106Z,103353.84
2023-02-14T17:39:26.867Z,103354.84
2023-02-14T17:41:53.572Z,103360.25
2023-02-14T17:44:20.960Z,103341.41
2023-02-14T17:46:47.764Z,103339.63
2023-02-14T17:49:14.618Z,103334.28
2023-02-14T17:51:41.502Z,103330.69
2023-02-14T17:54:08.217Z,103324.47
2023-02-14T17:56:34.970Z,103322.63
2023-02-14T17:59:01.611Z,103316.44
2023-02-14T18:01:31.612Z,103316.47
2023-02-14T18:03:58.671Z,103316.50
2023-02-14T18:06:26.721Z,103313.78
2023-02-14T18:08:56.759Z,103318.28
2023-02-14T18:11:26.162Z,103320.09
2023-02-14T18:13:58.146Z,103308.44
2023-02-14T18:16:25.417Z,103311.16
2023-02-14T18:18:52.370Z,103309.38
2023-02-14T18:21:24.472Z,103298.63
2023-02-14T18:23:51.947Z,103293.28
2023-02-14T18:26:19.658Z,103291.50
2023-02-14T18:28:46.353Z,103291.47
2023-02-14T18:31:16.399Z,103280.81
2023-02-14T18:33:43.904Z,103281.66
2023-02-14T18:36:14.110Z,103278.13
2023-02-14T18:38:42.520Z,103279.00
2023-02-14T18:41:15.193Z,103261.03
2023-02-14T18:43:42.414Z,103254.78
2023-02-14T18:46:21.992Z,103262.03
2023-02-14T18:48:49.368Z,103259.41
2023-02-14T18:51:19.496Z,103250.50
2023-02-14T18:53:47.510Z,103245.19
2023-02-14T18:56:17.177Z,103241.59
2023-02-14T18:58:47.642Z,103252.41
2023-02-14T19:01:22.693Z,103237.22
2023-02-14T19:03:50.893Z,103227.41
2023-02-14T19:06:18.182Z,103223.81
2023-02-14T19:08:45.403Z,103213.09
2023-02-14T19:11:14.404Z,103216.69
2023-02-14T19:13:45.937Z,103213.16
2023-02-14T19:16:15.096Z,103202.44
2023-02-14T19:18:41.883Z,103198.84
2023-02-14T19:21:16.168Z,103201.53
2023-02-14T19:23:43.457Z,103192.59
2023-02-14T19:26:14.753Z,103187.22
2023-02-14T19:28:43.289Z,103192.59
2023-02-14T19:31:10.590Z,103177.41
2023-02-14T19:33:42.930Z,103185.47
2023-02-14T19:36:14.461Z,103178.34
2023-02-14T19:38:42.680Z,103180.09
2023-02-14T19:41:39.594Z,103189.00
2023-02-14T19:44:09.414Z,103185.44
2023-02-14T19:46:38.246Z,103173.84
2023-02-14T19:49:05.310Z,103164.94
2023-02-14T19:51:35.920Z,103172.06
2023-02-14T19:54:05.744Z,103155.97
2023-02-14T19:56:34.708Z,103156.00
2023-02-14T19:59:07.690Z,103141.72
2023-02-14T20:01:42.255Z,103149.75
2023-02-14T20:04:12.116Z,103154.19
2023-02-14T20:06:38.811Z,103153.28
2023-02-14T20:09:06.638Z,103144.38
2023-02-14T20:11:50.893Z,103149.72
2023-02-14T20:14:29.411Z,103130.09
2023-02-14T20:16:57.819Z,103125.63
2023-02-14T20:19:27.782Z,103132.75
2023-02-14T20:21:55.108Z,103138.97
2023-02-14T20:24:32.184Z,103144.31
2023-02-14T20:27:00.530Z,103134.50
2023-02-14T20:29:27.473Z,103129.16
2023-02-14T20:32:01.479Z,103124.69
2023-02-14T20:34:28.520Z,103123.78
2023-02-14T20:36:56.139Z,103106.84
2023-02-14T20:39:30.906Z,103098.84
2023-02-14T20:41:57.893Z,103106.84
2023-02-14T20:44:24.755Z,103095.25
2023-02-14T20:46:53.826Z,103105.94
2023-02-14T20:49:22.145Z,103097.88
2023-02-14T20:51:49.836Z,103104.16
2023-02-14T20:54:20.693Z,103089.00
2023-02-14T20:56:48.318Z,103088.97
2023-02-14T20:59:15.114Z,103096.13
2023-02-14T21:01:41.832Z,103082.72
2023-02-14T21:04:08.642Z,103091.66
2023-02-14T21:06:36.051Z,103098.78
2023-02-14T21:09:04.235Z,103095.16
2023-02-14T21:11:31.053Z,103095.13
2023-02-14T21:14:00.164Z,103100.44
2023-02-14T21:16:28.576Z,103094.25
2023-02-14T21:18:59.268Z,103087.13
2023-02-14T21:21:36.139Z,103077.34
2023-02-14T21:24:08.780Z,103063.09
2023-02-14T21:26:36.120Z,103067.53
2023-02-14T21:29:03.063Z,103057.69
2023-02-14T21:31:29.913Z,103073.72
2023-02-14T21:33:58.860Z,103068.38
2023-02-14T21:36:28.322Z,103071.88
2023-02-14T21:38:58.258Z,103068.34
2023-02-14T21:41:27.676Z,103061.22
2023-02-14T21:43:56.468Z,103057.69
2023-02-14T21:46:27.449Z,103053.22
2023-02-14T21:49:13.866Z,103049.66
2023-02-14T21:51:41.491Z,103039.88
2023-02-14T21:54:09.388Z,103035.41
2023-02-14T21:56:37.197Z,103038.97
2023-02-14T21:59:04.569Z,103039.84
2023-02-14T22:01:34.162Z,103041.63
2023-02-14T22:04:01.646Z,103034.44
2023-02-14T22:06:28.680Z,103033.47
2023-02-14T22:08:57.129Z,103040.56
2023-02-14T22:11:26.577Z,103026.41
2023-02-14T22:13:53.442Z,103031.75
2023-02-14T22:16:21.570Z,103035.31
2023-02-14T22:18:48.751Z,103030.88
2023-02-14T22:21:18.664Z,103031.78
2023-02-14T22:23:45.532Z,103021.97
2023-02-14T22:26:23.152Z,103020.19
2023-02-14T22:28:51.622Z,103019.34
2023-02-14T22:31:19.587Z,103017.56
2023-02-14T22:33:47.357Z,103010.41
2023-02-14T22:36:14.466Z,103001.53
2023-02-14T22:38:41.493Z,102997.97
2023-02-14T22:41:17.243Z,103000.63
2023-02-14T22:43:44.322Z,102993.47
2023-02-14T22:46:17.428Z,102995.28
2023-02-14T22:48:44.648Z,102989.91
2023-02-14T22:51:12.736Z,102985.47
2023-02-14T22:53:39.569Z,102974.75
2023-02-14T22:56:17.371Z,102968.50
2023-02-14T22:58:44.373Z,102971.19
2023-02-14T23:01:20.739Z,102978.31
2023-02-14T23:03:48.966Z,102968.50
2023-02-14T23:06:15.761Z,102970.31
2023-02-14T23:08:44.684Z,102962.28
2023-02-14T23:11:17.988Z,102965.84
2023-02-14T23:14:03.682Z,102954.25
2023-02-14T23:16:49.552Z,102968.50
2023-02-14T23:19:40.875Z,102956.00
2023-02-14T23:22:09.312Z,102964.03
2023-02-14T23:24:36.250Z,102963.13
2023-02-14T23:27:03.599Z,102958.66
2023-02-14T23:29:30.620Z,102956.88
2023-02-14T23:31:57.733Z,102954.19
2023-02-14T23:34:26.300Z,102938.19
2023-02-14T23:36:53.290Z,102950.63
2023-02-14T23:39:20.452Z,102942.63
2023-02-14T23:41:47.200Z,102935.50
2023-02-14T23:44:19.817Z,102920.34
2023-02-14T23:46:52.137Z,102916.81
2023-02-14T23:49:19.670Z,102920.38
2023-02-14T23:51:47.832Z,102902.56
2023-02-14T23:54:14.918Z,102888.31
2023-02-14T23:56:42.046Z,102880.22
2023-02-14T23:59:10.070Z,102873.09
